createdAt,value
2019-04-10T00:01:53.115Z,7.50
2019-04-10T00:07:09.299Z,7.50
2019-04-10T00:12:07.435Z,7.50
2019-04-10T00:17:13.171Z,7.40
2019-04-10T00:22:18.191Z,7.30
2019-04-10T00:27:23.806Z,7.20
2019-04-10T00:32:28.671Z,7.20
2019-04-10T00:37:33.948Z,7.20
2019-04-10T00:42:43.216Z,7.10
2019-04-10T00:47:48.338Z,7.10
2019-04-10T00:52:54.641Z,7.00
2019-04-10T00:58:00.215Z,7.00
2019-04-10T01:03:07.058Z,6.90
2019-04-10T01:08:13.273Z,6.90
2019-04-10T01:13:18.804Z,6.70
2019-04-10T01:18:23.817Z,6.70
2019-04-10T01:23:29.332Z,6.60
2019-04-10T01:28:34.690Z,6.50
2019-04-10T01:33:41.365Z,6.50
2019-04-10T01:38:46.630Z,6.40
2019-04-10T01:43:51.546Z,6.40
2019-04-10T01:48:57.433Z,6.30
2019-04-10T01:54:03.060Z,6.40
2019-04-10T01:59:07.902Z,6.20
2019-04-10T02:04:14.313Z,6.20
2019-04-10T02:09:21.356Z,6.10
2019-04-10T02:14:26.379Z,6.00
2019-04-10T02:19:32.281Z,5.80
2019-04-10T02:29:46.086Z,5.80
2019-04-10T02:34:51.048Z,5.70
2019-04-10T02:40:00.040Z,5.70
2019-04-10T02:45:02.816Z,5.60
2019-04-10T02:50:09.970Z,5.40
2019-04-10T02:55:18.702Z,5.50
2019-04-10T03:00:24.584Z,5.30
2019-04-10T03:05:34.490Z,5.40
2019-04-10T03:10:48.667Z,5.10
2019-04-10T03:15:49.715Z,5.00
2019-04-10T03:20:57.063Z,4.50
2019-04-10T03:26:01.813Z,4.90
2019-04-10T03:31:07.935Z,4.90
2019-04-10T03:36:13.619Z,4.80
2019-04-10T03:41:22.038Z,4.90
2019-04-10T03:46:27.685Z,4.60
2019-04-10T03:51:32.484Z,4.70
2019-04-10T03:56:38.143Z,4.70
2019-04-10T04:01:43.258Z,4.60
2019-04-10T04:06:48.503Z,4.70
2019-04-10T04:11:53.975Z,4.60
2019-04-10T04:16:59.774Z,4.40
2019-04-10T04:22:06.064Z,4.40
2019-04-10T04:27:11.136Z,4.30
2019-04-10T04:32:17.629Z,4.20
2019-04-10T04:37:23.334Z,4.20
2019-04-10T04:42:28.706Z,4.00
2019-04-10T04:47:34.370Z,4.10
2019-04-10T04:52:39.574Z,4.10
2019-04-10T04:57:45.049Z,4.00
2019-04-10T05:02:51.478Z,4.00
2019-04-10T05:08:01.172Z,4.00
2019-04-10T05:13:04.037Z,3.90
2019-04-10T05:18:10.367Z,3.90
2019-04-10T05:23:16.143Z,4.00
2019-04-10T05:28:22.136Z,4.10
2019-04-10T05:33:28.800Z,4.20
2019-04-10T05:38:33.672Z,4.30
2019-04-10T05:43:39.390Z,4.50
2019-04-10T05:48:44.635Z,4.70
2019-04-10T05:53:52.228Z,4.60
2019-04-10T05:58:56.709Z,4.90
2019-04-10T06:04:03.006Z,5.00
2019-04-10T06:09:09.003Z,4.90
2019-04-10T06:14:14.099Z,5.00
2019-04-10T06:19:19.947Z,5.30
2019-04-10T06:24:25.247Z,5.20
2019-04-10T06:29:32.482Z,5.30
2019-04-10T06:34:40.834Z,5.40
2019-04-10T06:39:46.485Z,5.40
2019-04-10T06:44:52.375Z,5.60
2019-04-10T06:49:58.756Z,5.60
2019-04-10T06:55:05.066Z,5.50
2019-04-10T07:00:14.602Z,5.50
2019-04-10T07:05:19.874Z,5.70
2019-04-10T07:10:30.836Z,6.20
2019-04-10T07:15:31.875Z,6.20
2019-04-10T07:20:37.848Z,6.30
2019-04-10T07:25:45.451Z,6.50
2019-04-10T07:30:52.025Z,6.90
2019-04-10T07:35:57.393Z,6.50
2019-04-10T07:41:07.116Z,6.70
2019-04-10T07:46:08.959Z,6.80
2019-04-10T07:51:14.092Z,7.10
2019-04-10T07:56:20.938Z,7.10
2019-04-10T08:01:26.405Z,7.20
2019-04-10T08:06:31.885Z,7.50
2019-04-10T08:11:36.753Z,7.90
2019-04-10T08:16:43.391Z,8.00
2019-04-10T08:21:49.153Z,7.90
2019-04-10T08:26:54.915Z,8.00
2019-04-10T08:31:59.819Z,8.20
2019-04-10T08:37:05.639Z,8.30
2019-04-10T08:42:18.922Z,8.70
2019-04-10T08:47:24.894Z,9.00
2019-04-10T08:52:30.443Z,9.00
2019-04-10T08:57:36.215Z,9.10
2019-04-10T09:02:42.330Z,8.70
2019-04-10T09:07:48.465Z,9.00
2019-04-10T09:12:55.896Z,9.40
2019-04-10T09:18:01.965Z,9.50
2019-04-10T09:23:21.718Z,9.60
2019-04-10T09:28:14.366Z,9.70
2019-04-10T09:33:23.354Z,10.80
2019-04-10T09:38:26.492Z,11.20
2019-04-10T09:43:31.759Z,11.70
2019-04-10T09:48:37.877Z,9.90
2019-04-10T09:53:43.394Z,10.50
2019-04-10T09:58:49.089Z,9.80
2019-04-10T10:03:55.623Z,9.80
2019-04-10T10:09:01.643Z,9.20
2019-04-10T10:14:08.268Z,9.80
2019-04-10T10:19:14.206Z,9.70
2019-04-10T10:24:19.942Z,10.00
2019-04-10T10:29:25.966Z,9.60
2019-04-10T10:34:31.804Z,9.80
2019-04-10T10:39:37.173Z,9.90
2019-04-10T10:44:42.544Z,9.80
2019-04-10T10:49:48.656Z,9.90
2019-04-10T10:54:53.733Z,9.60
2019-04-10T10:59:58.590Z,9.40
2019-04-10T11:05:06.887Z,9.70
2019-04-10T11:10:12.472Z,9.60
2019-04-10T11:15:18.370Z,9.60
2019-04-10T11:20:26.045Z,9.50
2019-04-10T11:25:32.368Z,9.50
2019-04-10T11:30:37.818Z,9.60
2019-04-10T11:35:43.928Z,9.40
2019-04-10T11:40:49.814Z,9.40
2019-04-10T11:45:58.508Z,9.50
2019-04-10T11:51:03.187Z,9.80
2019-04-10T11:56:10.726Z,9.70
2019-04-10T12:01:17.746Z,9.70
2019-04-10T12:06:25.450Z,9.60
2019-04-10T12:11:33.116Z,9.70
2019-04-10T12:16:39.000Z,9.60
2019-04-10T12:21:44.340Z,9.90
2019-04-10T12:26:49.925Z,9.80
2019-04-10T12:31:56.549Z,9.90
2019-04-10T12:37:02.879Z,9.90
2019-04-10T12:42:07.936Z,9.70
2019-04-10T12:47:13.481Z,10.10
2019-04-10T12:52:18.557Z,9.90
2019-04-10T12:57:23.398Z,10.00
2019-04-10T13:02:30.200Z,10.00
2019-04-10T13:07:35.899Z,10.10
2019-04-10T13:12:42.645Z,9.90
2019-04-10T13:17:49.055Z,9.90
2019-04-10T13:22:56.268Z,10.10
2019-04-10T13:28:01.584Z,10.00
2019-04-10T13:33:08.681Z,9.80
2019-04-10T13:38:23.141Z,10.00
2019-04-10T13:43:20.610Z,10.20
2019-04-10T13:48:25.591Z,10.00
2019-04-10T13:53:30.758Z,9.90
2019-04-10T13:58:35.942Z,10.00
2019-04-10T14:03:42.524Z,9.90
2019-04-10T14:09:03.196Z,10.10
2019-04-10T14:13:55.943Z,9.90
2019-04-10T14:19:01.218Z,10.00
2019-04-10T14:24:07.300Z,10.20
2019-04-10T14:29:16.295Z,10.10
2019-04-10T14:34:22.734Z,10.10
2019-04-10T14:39:28.717Z,10.10
2019-04-10T14:44:34.753Z,10.20
2019-04-10T14:49:41.294Z,9.90
2019-04-10T14:54:47.918Z,9.90
2019-04-10T14:59:53.147Z,10.00
2019-04-10T15:04:59.347Z,10.10
2019-04-10T15:10:06.423Z,10.30
2019-04-10T15:15:12.176Z,10.00
2019-04-10T15:20:19.387Z,10.20
2019-04-10T15:25:24.912Z,10.20
2019-04-10T15:30:30.749Z,10.00
2019-04-10T15:35:35.744Z,10.10
2019-04-10T15:40:42.003Z,10.00
2019-04-10T15:45:48.304Z,9.80
2019-04-10T15:50:54.188Z,9.90
2019-04-10T15:55:59.594Z,9.90
2019-04-10T16:01:06.416Z,10.00
2019-04-10T16:06:13.285Z,10.00
2019-04-10T16:11:29.926Z,10.00
2019-04-10T16:16:48.834Z,9.90
2019-04-10T16:21:54.287Z,9.90
2019-04-10T16:26:59.996Z,9.80
2019-04-10T16:32:08.366Z,9.80
2019-04-10T16:37:14.518Z,9.80
2019-04-10T16:42:22.090Z,9.80
2019-04-10T16:47:28.250Z,9.70
2019-04-10T16:52:33.843Z,9.60
2019-04-10T16:57:39.213Z,9.80
2019-04-10T17:02:44.484Z,9.60
2019-04-10T17:07:49.620Z,9.60
2019-04-10T17:12:54.973Z,9.50
2019-04-10T17:18:01.044Z,9.50
2019-04-10T17:23:08.109Z,9.20
2019-04-10T17:28:14.323Z,9.20
2019-04-10T17:33:20.655Z,9.00
2019-04-10T17:38:26.730Z,8.80
2019-04-10T17:43:32.881Z,8.70
2019-04-10T17:48:39.161Z,8.60
2019-04-10T17:53:45.468Z,8.50
2019-04-10T17:58:51.928Z,8.40
2019-04-10T18:04:00.544Z,8.30
2019-04-10T18:09:07.343Z,8.10
2019-04-10T18:14:13.360Z,7.90
2019-04-10T18:19:19.151Z,7.80
2019-04-10T18:29:29.423Z,7.50
2019-04-10T18:34:35.353Z,7.50
2019-04-10T18:39:40.863Z,7.40
2019-04-10T18:44:47.395Z,7.30
2019-04-10T18:49:52.324Z,7.30
2019-04-10T18:55:03.880Z,7.20
2019-04-10T19:00:43.183Z,7.00
2019-04-10T19:05:52.028Z,6.90
2019-04-10T19:11:10.622Z,6.80
2019-04-10T19:16:05.536Z,6.80
2019-04-10T19:21:11.381Z,6.80
2019-04-10T19:26:23.062Z,6.60
2019-04-10T19:31:29.783Z,6.60
2019-04-10T19:36:36.232Z,6.60
2019-04-10T19:41:55.655Z,6.50
2019-04-10T19:47:04.309Z,6.50
2019-04-10T19:52:22.465Z,6.40
2019-04-10T19:57:45.816Z,6.30
2019-04-10T20:02:51.085Z,6.40
2019-04-10T20:07:56.207Z,6.30
2019-04-10T20:13:01.425Z,6.30
2019-04-10T20:18:06.539Z,6.20
2019-04-10T20:23:12.773Z,6.20
2019-04-10T20:28:18.927Z,6.10
2019-04-10T20:33:24.977Z,6.10
2019-04-10T20:38:31.959Z,6.00
2019-04-10T20:43:37.349Z,6.00
2019-04-10T20:48:42.201Z,5.90
2019-04-10T20:53:47.050Z,5.90
2019-04-10T20:58:52.651Z,5.90
2019-04-10T21:04:01.689Z,5.80
2019-04-10T21:09:08.377Z,5.90
2019-04-10T21:14:17.021Z,5.80
2019-04-10T21:19:21.919Z,5.70
2019-04-10T21:24:29.392Z,5.70
2019-04-10T21:29:55.084Z,5.60
2019-04-10T21:35:01.926Z,5.70
2019-04-10T21:40:10.299Z,5.50
2019-04-10T21:45:18.032Z,5.60
2019-04-10T21:50:23.511Z,5.50
2019-04-10T21:55:29.121Z,5.50
2019-04-10T22:00:51.134Z,5.50
2019-04-10T22:06:09.276Z,5.50
2019-04-10T22:11:16.994Z,5.50
2019-04-10T22:16:24.445Z,5.50
2019-04-10T22:21:31.852Z,5.40
2019-04-10T22:26:36.708Z,5.50
2019-04-10T22:31:41.719Z,5.40
2019-04-10T22:41:56.889Z,5.30
2019-04-10T22:47:03.008Z,5.30
2019-04-10T22:52:08.841Z,5.30
2019-04-10T22:57:14.547Z,5.20
2019-04-10T23:02:19.913Z,5.10
2019-04-10T23:07:26.077Z,5.10
2019-04-10T23:12:32.610Z,5.10
2019-04-10T23:17:37.659Z,5.00
2019-04-10T23:22:43.176Z,5.00
2019-04-10T23:27:51.965Z,5.00
2019-04-10T23:32:56.139Z,4.90
2019-04-10T23:38:02.114Z,4.90
2019-04-10T23:43:13.598Z,4.80
2019-04-10T23:48:14.919Z,4.90
2019-04-10T23:53:20.478Z,4.80
2019-04-10T23:58:26.733Z,4.80
